createdAt,value
2023-01-29T00:00:04.344Z,-1.57
2023-01-29T00:05:43.802Z,-1.61
2023-01-29T00:10:53.560Z,-1.61
2023-01-29T00:16:03.005Z,-1.61
2023-01-29T00:21:15.658Z,-1.65
2023-01-29T00:26:27.009Z,-1.74
2023-01-29T00:31:38.386Z,-1.84
2023-01-29T00:37:09.380Z,-1.95
2023-01-29T00:42:35.539Z,-2.03
2023-01-29T00:48:04.397Z,-2.09
2023-01-29T00:53:20.256Z,-2.12
2023-01-29T00:58:38.618Z,-2.15
2023-01-29T01:03:51.288Z,-2.19
2023-01-29T01:09:35.018Z,-2.22
2023-01-29T01:14:48.530Z,-2.21
2023-01-29T01:19:59.166Z,-2.21
2023-01-29T01:25:11.845Z,-2.20
2023-01-29T01:30:23.897Z,-2.18
2023-01-29T01:35:32.765Z,-2.13
2023-01-29T01:40:50.099Z,-2.09
2023-01-29T01:46:42.321Z,-2.06
2023-01-29T01:52:07.096Z,-2.04
2023-01-29T01:57:29.879Z,-2.01
2023-01-29T02:03:00.075Z,-1.99
2023-01-29T02:08:29.380Z,-1.94
2023-01-29T02:13:48.257Z,-1.87
2023-01-29T02:19:25.326Z,-1.82
2023-01-29T02:25:20.124Z,-1.77
2023-01-29T02:31:12.682Z,-1.71
2023-01-29T02:36:49.493Z,-1.66
2023-01-29T02:42:10.319Z,-1.63
2023-01-29T02:47:28.816Z,-1.59
2023-01-29T02:52:51.240Z,-1.56
2023-01-29T02:58:14.206Z,-1.55
2023-01-29T03:03:35.479Z,-1.52
2023-01-29T03:08:59.949Z,-1.50
2023-01-29T03:14:17.157Z,-1.48
2023-01-29T03:19:44.647Z,-1.47
2023-01-29T03:25:29.722Z,-1.46
2023-01-29T03:31:03.667Z,-1.46
2023-01-29T03:36:31.895Z,-1.45
2023-01-29T03:41:50.550Z,-1.43
2023-01-29T03:47:07.281Z,-1.42
2023-01-29T03:52:29.572Z,-1.40
2023-01-29T03:58:00.996Z,-1.40
2023-01-29T04:03:18.671Z,-1.40
2023-01-29T04:08:38.714Z,-1.39
2023-01-29T04:13:51.268Z,-1.38
2023-01-29T04:19:02.953Z,-1.38
2023-01-29T04:24:31.622Z,-1.37
2023-01-29T04:29:57.772Z,-1.37
2023-01-29T04:35:31.493Z,-1.38
2023-01-29T04:40:52.201Z,-1.38
2023-01-29T04:46:13.811Z,-1.39
2023-01-29T04:51:26.800Z,-1.41
2023-01-29T04:56:40.869Z,-1.43
2023-01-29T05:01:50.790Z,-1.44
2023-01-29T05:06:58.468Z,-1.47
2023-01-29T05:12:08.227Z,-1.48
2023-01-29T05:17:19.901Z,-1.50
2023-01-29T05:22:28.659Z,-1.52
2023-01-29T05:27:56.038Z,-1.53
2023-01-29T05:33:03.572Z,-1.53
2023-01-29T05:38:11.107Z,-1.53
2023-01-29T05:43:20.093Z,-1.54
2023-01-29T05:48:28.873Z,-1.54
2023-01-29T05:53:36.085Z,-1.56
2023-01-29T05:58:43.139Z,-1.57
2023-01-29T06:03:50.426Z,-1.59
2023-01-29T06:08:58.398Z,-1.60
2023-01-29T06:14:05.373Z,-1.63
2023-01-29T06:19:12.399Z,-1.65
2023-01-29T06:24:19.432Z,-1.70
2023-01-29T06:29:26.457Z,-1.75
2023-01-29T06:34:33.389Z,-1.79
2023-01-29T06:39:40.436Z,-1.82
2023-01-29T06:44:47.484Z,-1.87
2023-01-29T06:49:56.222Z,-1.89
2023-01-29T06:55:03.924Z,-1.88
2023-01-29T07:00:12.985Z,-1.88
2023-01-29T07:05:20.418Z,-1.85
2023-01-29T07:10:27.436Z,-1.81
2023-01-29T07:15:37.324Z,-1.78
2023-01-29T07:20:45.301Z,-1.76
2023-01-29T07:25:52.814Z,-1.75
2023-01-29T07:31:00.596Z,-1.72
2023-01-29T07:36:13.502Z,-1.69
2023-01-29T07:41:20.796Z,-1.63
2023-01-29T07:46:27.745Z,-1.55
2023-01-29T07:51:35.107Z,-1.49
2023-01-29T07:56:42.455Z,-1.44
2023-01-29T08:01:49.518Z,-1.41
2023-01-29T08:06:56.551Z,-1.38
2023-01-29T08:12:03.733Z,-1.29
2023-01-29T08:17:10.776Z,-1.23
2023-01-29T08:22:17.661Z,-1.18
2023-01-29T08:27:24.727Z,-1.14
2023-01-29T08:32:31.715Z,-1.08
2023-01-29T08:37:38.870Z,-1.02
2023-01-29T08:43:18.851Z,-0.96
2023-01-29T08:48:50.805Z,-0.88
2023-01-29T08:53:57.966Z,-0.83
2023-01-29T08:59:05.249Z,-0.85
2023-01-29T09:04:12.315Z,-0.80
2023-01-29T09:09:19.525Z,-0.78
2023-01-29T09:14:27.681Z,-0.74
2023-01-29T09:19:37.164Z,-0.63
2023-01-29T09:24:44.081Z,-0.55
2023-01-29T09:29:51.259Z,-0.50
2023-01-29T09:34:58.252Z,-0.45
2023-01-29T09:40:05.657Z,-0.42
2023-01-29T09:45:20.613Z,-0.35
2023-01-29T09:50:32.926Z,-0.25
2023-01-29T09:55:40.644Z,0.01
2023-01-29T10:00:58.458Z,0.18
2023-01-29T10:06:27.368Z,0.26
2023-01-29T10:11:47.238Z,0.13
2023-01-29T10:17:12.980Z,0.16
2023-01-29T10:22:49.885Z,0.22
2023-01-29T10:27:59.577Z,0.39
2023-01-29T10:33:07.682Z,0.43
2023-01-29T10:38:31.032Z,0.60
2023-01-29T10:43:51.560Z,0.76
2023-01-29T10:49:09.702Z,0.95
2023-01-29T10:54:31.208Z,0.97
2023-01-29T10:59:52.898Z,1.00
2023-01-29T11:05:02.540Z,1.03
2023-01-29T11:10:16.021Z,1.10
2023-01-29T11:15:29.631Z,1.11
2023-01-29T11:20:36.616Z,1.15
2023-01-29T11:25:55.607Z,1.19
2023-01-29T11:31:03.210Z,1.19
2023-01-29T11:36:23.701Z,1.17
2023-01-29T11:41:30.726Z,1.16
2023-01-29T11:46:40.759Z,1.16
2023-01-29T11:51:56.494Z,1.18
2023-01-29T11:57:04.349Z,1.16
2023-01-29T12:02:26.627Z,1.15
2023-01-29T12:07:35.769Z,1.22
2023-01-29T12:12:45.834Z,1.25
2023-01-29T12:18:00.830Z,1.19
2023-01-29T12:23:22.854Z,1.07
2023-01-29T12:28:50.014Z,1.03
2023-01-29T12:34:06.357Z,1.08
2023-01-29T12:39:18.083Z,1.10
2023-01-29T12:44:32.145Z,1.15
2023-01-29T12:49:42.671Z,1.16
2023-01-29T12:54:56.440Z,1.13
2023-01-29T13:00:09.170Z,1.16
2023-01-29T13:05:24.494Z,1.22
2023-01-29T13:10:45.783Z,1.32
2023-01-29T13:16:01.314Z,1.37
2023-01-29T13:21:21.640Z,1.42
2023-01-29T13:26:38.879Z,1.48
2023-01-29T13:32:05.899Z,1.60
2023-01-29T13:37:31.421Z,1.67
2023-01-29T13:42:59.887Z,1.69
2023-01-29T13:48:41.103Z,1.71
2023-01-29T13:54:24.043Z,1.76
2023-01-29T14:00:17.283Z,1.80
2023-01-29T14:06:24.366Z,1.81
2023-01-29T14:11:59.408Z,1.82
2023-01-29T14:17:30.543Z,1.80
2023-01-29T14:22:59.615Z,1.78
2023-01-29T14:28:27.032Z,1.78
2023-01-29T14:33:44.751Z,1.77
2023-01-29T14:39:15.194Z,1.76
2023-01-29T14:45:30.563Z,1.70
2023-01-29T14:50:56.407Z,1.63
2023-01-29T14:56:17.864Z,1.57
2023-01-29T15:01:37.071Z,1.50
2023-01-29T15:06:50.330Z,1.42
2023-01-29T15:12:25.370Z,1.32
2023-01-29T15:17:49.278Z,1.21
2023-01-29T15:23:12.914Z,1.09
2023-01-29T15:28:43.516Z,1.04
2023-01-29T15:34:12.789Z,1.00
2023-01-29T15:39:30.479Z,1.00
2023-01-29T15:44:46.541Z,1.00
2023-01-29T15:49:59.045Z,1.01
2023-01-29T15:55:11.187Z,1.02
2023-01-29T16:00:32.017Z,1.00
2023-01-29T16:05:44.314Z,0.98
2023-01-29T16:10:57.348Z,0.94
2023-01-29T16:16:25.426Z,0.88
2023-01-29T16:21:38.166Z,0.79
2023-01-29T16:26:55.120Z,0.76
2023-01-29T16:32:06.655Z,0.74
2023-01-29T16:37:28.729Z,0.76
2023-01-29T16:42:44.971Z,0.76
2023-01-29T16:48:26.436Z,0.74
2023-01-29T16:54:15.108Z,0.72
2023-01-29T16:59:35.949Z,0.71
2023-01-29T17:04:50.160Z,0.69
2023-01-29T17:10:05.581Z,0.65
2023-01-29T17:21:33.240Z,0.60
2023-01-29T17:26:42.292Z,0.60
2023-01-29T17:31:50.323Z,0.59
2023-01-29T17:37:24.431Z,0.57
2023-01-29T17:42:42.577Z,0.56
2023-01-29T17:48:00.772Z,0.55
2023-01-29T17:53:12.524Z,0.56
2023-01-29T17:58:41.282Z,0.59
2023-01-29T18:04:06.743Z,0.58
2023-01-29T18:09:45.924Z,0.55
2023-01-29T18:15:11.877Z,0.53
2023-01-29T18:20:29.416Z,0.54
2023-01-29T18:26:18.849Z,0.56
2023-01-29T18:31:40.161Z,0.58
2023-01-29T18:37:13.106Z,0.59
2023-01-29T18:42:28.830Z,0.60
2023-01-29T18:53:32.876Z,0.68
2023-01-29T18:58:51.997Z,0.70
2023-01-29T19:04:16.055Z,0.72
2023-01-29T19:09:27.254Z,0.73
2023-01-29T19:14:35.927Z,0.75
2023-01-29T19:19:44.531Z,0.76
2023-01-29T19:24:52.067Z,0.77
2023-01-29T19:29:59.785Z,0.80
2023-01-29T19:35:07.571Z,0.81
2023-01-29T19:40:15.000Z,0.81
2023-01-29T19:45:49.099Z,0.80
2023-01-29T19:50:57.017Z,0.76
2023-01-29T19:56:06.433Z,0.71
2023-01-29T20:01:31.242Z,0.68
2023-01-29T20:06:49.047Z,0.61
2023-01-29T20:12:00.955Z,0.52
2023-01-29T20:17:12.995Z,0.43
2023-01-29T20:22:34.363Z,0.36
2023-01-29T20:27:50.204Z,0.30
2023-01-29T20:33:00.788Z,0.26
2023-01-29T20:38:21.539Z,0.24
2023-01-29T20:43:31.839Z,0.26
2023-01-29T20:48:42.560Z,0.27
2023-01-29T20:53:57.198Z,0.26
2023-01-29T20:59:08.630Z,0.22
2023-01-29T21:04:22.488Z,0.17
2023-01-29T21:09:32.189Z,0.07
2023-01-29T21:15:00.591Z,-0.05
2023-01-29T21:20:17.681Z,-0.16
2023-01-29T21:25:33.740Z,-0.29
2023-01-29T21:30:54.934Z,-0.44
2023-01-29T21:36:13.887Z,-0.57
2023-01-29T21:41:53.439Z,-0.67
2023-01-29T21:47:15.568Z,-0.75
2023-01-29T21:52:23.948Z,-0.78
2023-01-29T21:57:45.277Z,-0.80
2023-01-29T22:02:59.010Z,-0.81
2023-01-29T22:08:07.357Z,-0.85
2023-01-29T22:13:20.841Z,-0.89
2023-01-29T22:18:28.963Z,-0.92
2023-01-29T22:23:40.014Z,-0.91
2023-01-29T22:28:59.371Z,-0.91
2023-01-29T22:34:19.592Z,-0.92
2023-01-29T22:39:27.608Z,-0.92
2023-01-29T22:44:35.285Z,-0.88
2023-01-29T22:49:45.746Z,-0.84
2023-01-29T22:54:59.343Z,-0.78
2023-01-29T23:00:17.695Z,-0.72
2023-01-29T23:05:33.527Z,-0.67
2023-01-29T23:10:45.482Z,-0.63
2023-01-29T23:16:04.434Z,-0.58
2023-01-29T23:21:16.297Z,-0.55
2023-01-29T23:26:42.491Z,-0.50
2023-01-29T23:31:51.772Z,-0.46
2023-01-29T23:37:06.166Z,-0.40
2023-01-29T23:42:15.804Z,-0.36
2023-01-29T23:47:23.484Z,-0.31
2023-01-29T23:52:31.316Z,-0.25
2023-01-29T23:57:42.289Z,-0.23
